Haci Arif Kaptan — TCQQ — position and weather

sailwx.info

Track history (hours):
 
Tides and Currents Weather Stations Pressure Air Temp Water Temp Dewpoint Dewpoint Depression Visibility Wind Speed Wind Dir Waves Ship Positions

Haci Arif Kaptan

Last reported at 2014-Sep-13 00:29 UTC. Time now 2014-Sep-18 15:47 UTC.
Position N 40°53' E 028°34'.

Length 130 m; draft 4 m.

Type: Ship. MMSI: 271000494.

Date/timePositionNaut miles runAvg speedWind from/ knotsBaromVisibWave heightAir tempDewpointWater temp
2014-Sep-13 00:29N 40°53' E 028°34'10 8.1
2014-Sep-12 23:18N 40°55' E 028°47'6 7.4
2014-Sep-12 22:32N 40°57' E 028°54'  
2014-Sep-09 03:07N 46°35' E 031°03'0 0.0
2014-Sep-09 01:22N 46°35' E 031°02'0 0.0
2014-Sep-09 00:31N 46°35' E 031°02'0 0.0
2014-Sep-08 00:22N 46°35' E 031°03'0 0.0
2014-Sep-07 23:31N 46°35' E 031°03'0 0.0
2014-Sep-07 20:31N 46°35' E 031°02'0 0.0
2014-Sep-07 19:31N 46°35' E 031°02'7 3.2
2014-Sep-07 17:30N 46°29' E 030°57'14 9.7
2014-Sep-07 16:05N 46°16' E 030°59'305 6.8
2014-Sep-05 19:30N 41°20' E 029°12'22 7.2
2014-Sep-05 16:29N 41°01' E 029°00'5 5.8
2014-Sep-05 15:33N 40°56' E 028°57'2 1.9
2014-Sep-05 14:23N 40°58' E 028°55'0 0.0
2014-Sep-05 13:05N 40°58' E 028°55'0 0.0
2014-Sep-05 12:23N 40°58' E 028°55'0 0.0
2014-Sep-05 11:23N 40°58' E 028°55'0 0.0
2014-Sep-05 10:11N 40°58' E 028°55'0 0.0
2014-Sep-05 09:23N 40°58' E 028°55'0 0.0
2014-Sep-05 08:23N 40°58' E 028°55'0 0.1
2014-Sep-05 07:17N 40°58' E 028°55'0 0.0
2014-Sep-05 06:05N 40°58' E 028°55'0 0.0
2014-Sep-05 05:05N 40°58' E 028°55'0 0.0
2014-Sep-05 04:23N 40°58' E 028°55'0 0.0
2014-Sep-05 02:29N 40°58' E 028°55'0 0.0
2014-Sep-04 22:11N 40°58' E 028°55'0 0.0
2014-Sep-04 21:29N 40°58' E 028°55'0 0.0
2014-Sep-04 20:05N 40°58' E 028°55'0 0.0
2014-Sep-04 18:29N 40°58' E 028°55'0 0.0
2014-Sep-04 17:23N 40°58' E 028°55'0 0.0
2014-Sep-04 16:05N 40°58' E 028°55'0 0.0
2014-Sep-04 15:23N 40°58' E 028°55'0 0.0
2014-Sep-04 14:17N 40°58' E 028°55'0 0.0
2014-Sep-04 13:29N 40°58' E 028°55'0 0.1
2014-Sep-04 11:11N 40°58' E 028°55'0 0.0
2014-Sep-04 10:11N 40°58' E 028°55'0 0.0
2014-Sep-04 05:29N 40°58' E 028°55'0 0.0
2014-Sep-04 04:11N 40°58' E 028°55'0 0.1
2014-Sep-04 02:23N 40°58' E 028°55'0 0.0
2014-Sep-04 01:29N 40°58' E 028°55'0 0.0
2014-Sep-04 00:29N 40°58' E 028°55'0 0.0
2014-Sep-03 22:08N 40°58' E 028°55'0 0.1
2014-Sep-03 21:32N 40°58' E 028°55'0 0.0
2014-Sep-03 20:26N 40°58' E 028°55'0 0.0
2014-Sep-03 19:20N 40°58' E 028°55'0 0.0
2014-Sep-03 14:08N 40°58' E 028°55'0 0.0
2014-Sep-03 12:32N 40°58' E 028°55'0 0.0
2014-Sep-03 08:11N 40°58' E 028°55'0 0.0
2014-Sep-03 05:29N 40°58' E 028°55'3 2.7
2014-Sep-03 04:33N 40°56' E 028°57'8 8.4
2014-Sep-03 03:32N 40°50' E 028°48'  
Track history (hours):
 
Tides and Currents Weather Stations Pressure Air Temp Water Temp Dewpoint Dewpoint Depression Visibility Wind Speed Wind Dir Waves Ship Positions

Haci Arif Kaptan

Last reported at 2014-Sep-13 00:29 UTC. Time now 2014-Sep-18 15:47 UTC.
Position N 40°53' E 028°34'.

Length 130 m; draft 4 m.

Type: Ship. MMSI: 271000494.

Date/timePositionNaut miles runAvg speedWind from/ knotsBaromVisibWave heightAir tempDewpointWater temp
2014-Sep-13 00:29N 40°53' E 028°34'10 8.1
2014-Sep-12 23:18N 40°55' E 028°47'6 7.4
2014-Sep-12 22:32N 40°57' E 028°54'  
2014-Sep-09 03:07N 46°35' E 031°03'0 0.0
2014-Sep-09 01:22N 46°35' E 031°02'0 0.0
2014-Sep-09 00:31N 46°35' E 031°02'0 0.0
2014-Sep-08 00:22N 46°35' E 031°03'0 0.0
2014-Sep-07 23:31N 46°35' E 031°03'0 0.0
2014-Sep-07 20:31N 46°35' E 031°02'0 0.0
2014-Sep-07 19:31N 46°35' E 031°02'7 3.2
2014-Sep-07 17:30N 46°29' E 030°57'14 9.7
2014-Sep-07 16:05N 46°16' E 030°59'305 6.8
2014-Sep-05 19:30N 41°20' E 029°12'22 7.2
2014-Sep-05 16:29N 41°01' E 029°00'5 5.8
2014-Sep-05 15:33N 40°56' E 028°57'2 1.9
2014-Sep-05 14:23N 40°58' E 028°55'0 0.0
2014-Sep-05 13:05N 40°58' E 028°55'0 0.0
2014-Sep-05 12:23N 40°58' E 028°55'0 0.0
2014-Sep-05 11:23N 40°58' E 028°55'0 0.0
2014-Sep-05 10:11N 40°58' E 028°55'0 0.0
2014-Sep-05 09:23N 40°58' E 028°55'0 0.0
2014-Sep-05 08:23N 40°58' E 028°55'0 0.1
2014-Sep-05 07:17N 40°58' E 028°55'0 0.0
2014-Sep-05 06:05N 40°58' E 028°55'0 0.0
2014-Sep-05 05:05N 40°58' E 028°55'0 0.0
2014-Sep-05 04:23N 40°58' E 028°55'0 0.0
2014-Sep-05 02:29N 40°58' E 028°55'0 0.0
2014-Sep-04 22:11N 40°58' E 028°55'0 0.0
2014-Sep-04 21:29N 40°58' E 028°55'0 0.0
2014-Sep-04 20:05N 40°58' E 028°55'0 0.0
2014-Sep-04 18:29N 40°58' E 028°55'0 0.0
2014-Sep-04 17:23N 40°58' E 028°55'0 0.0
2014-Sep-04 16:05N 40°58' E 028°55'0 0.0
2014-Sep-04 15:23N 40°58' E 028°55'0 0.0
2014-Sep-04 14:17N 40°58' E 028°55'0 0.0
2014-Sep-04 13:29N 40°58' E 028°55'0 0.1
2014-Sep-04 11:11N 40°58' E 028°55'0 0.0
2014-Sep-04 10:11N 40°58' E 028°55'0 0.0
2014-Sep-04 05:29N 40°58' E 028°55'0 0.0
2014-Sep-04 04:11N 40°58' E 028°55'0 0.1
2014-Sep-04 02:23N 40°58' E 028°55'0 0.0
2014-Sep-04 01:29N 40°58' E 028°55'0 0.0
2014-Sep-04 00:29N 40°58' E 028°55'0 0.0
2014-Sep-03 22:08N 40°58' E 028°55'0 0.1
2014-Sep-03 21:32N 40°58' E 028°55'0 0.0
2014-Sep-03 20:26N 40°58' E 028°55'0 0.0
2014-Sep-03 19:20N 40°58' E 028°55'0 0.0
2014-Sep-03 14:08N 40°58' E 028°55'0 0.0
2014-Sep-03 12:32N 40°58' E 028°55'0 0.0
2014-Sep-03 08:11N 40°58' E 028°55'0 0.0
2014-Sep-03 05:29N 40°58' E 028°55'3 2.7
2014-Sep-03 04:33N 40°56' E 028°57'8 8.4
2014-Sep-03 03:32N 40°50' E 028°48'  

Dump ship's entire track history